メインページ
METAR-TAF:

METAR-TAF

空港 :

ヴァヴァウ国際空港

ヴァヴァウ諸島, トンガ

緯度: 18-35-07S, 経度: 173-57-42W, 海抜: 72m

現時点の気象観測

当レポートは1時間5分前の05:00(UTC)に作成
の風 7kt
気温 26°C
湿度 79%
気圧 1011 hPa
視程10km以上
高度1600ftの雲はほとんどない, 塔状積雲.

METAR: NFTV 210500Z 08007KT 9999 FEW016TCU 26/22 Q1011

時間: 19:05 (06:05 UTC)

予報

当レポートは48分前の05:17(UTC)に作成
予報は21日の 06時(UTC)から 22日の 06時(UTC)まで有効
の風 8kt
視程10km以上
高度1600ftの雲は散在している

TAF: NFTV 210517Z 2106/2206 08008KT 9999 SCT016

4,000以上の空港の気象観測と天気予報(METAR報とTAF報)

利用可能な観測所は地図上に黄色い丸と赤い丸で示す。

丸の上にカーソルを重ねると観測所名を参照できる。

次にクリックすると気象観測と天気予報を参照できる。

マップの切り替え:黒色「×」印の緑ボタンをクリックして拡大、「-」印の緑ボタンをクリックして縮小、緑色の三角印をクリックして隣りの地図に切り替え


METAR-TAF: